AUA26K LOWW-EDDS
Flight info
| Callsign | AUA26K |
|---|---|
| Flight time | N/A |
| Altitude | 30000 |
| Route | LUGEM DCT KIRDI DCT EBEDA L173 MAH/N0356F240 L173 DODIL T127 TEKSI TEKSI1W |
| Aircraft | A20N/M-SDE2E3FGHIRWXY/LB1 |
Departure
| Time | 2026-05-06 18:12 |
|---|---|
| Airport | Vienna International Airport (LOWW) |
Arrival
| Time | N/A |
|---|---|
| Airport | Stuttgart Airport (EDDS) |
| Time | Latitude | Longitude | Altitude | Speed | Heading |
|---|---|---|---|---|---|
| 2026-05-06 17:34 | 48.11846 | 16.56935 | 598 ft | 0 kts | 206° |
| 2026-05-06 18:03 | 48.11857 | 16.56944 | 598 ft | 2 kts | 207° |
| 2026-05-06 18:03 | 48.11871 | 16.56953 | 598 ft | 2 kts | 206° |
| 2026-05-06 18:04 | 48.11880 | 16.56960 | 598 ft | 2 kts | 205° |
| 2026-05-06 18:04 | 48.11895 | 16.56964 | 598 ft | 2 kts | 173° |
| 2026-05-06 18:04 | 48.11909 | 16.56957 | 597 ft | 2 kts | 149° |
| 2026-05-06 18:04 | 48.11920 | 16.56942 | 597 ft | 2 kts | 125° |
| 2026-05-06 18:05 | 48.11924 | 16.56933 | 597 ft | 1 kts | 111° |
| 2026-05-06 18:05 | 48.11926 | 16.56927 | 597 ft | 0 kts | 115° |
| 2026-05-06 18:07 | 48.11924 | 16.56933 | 597 ft | 2 kts | 115° |
| 2026-05-06 18:07 | 48.11909 | 16.56978 | 597 ft | 6 kts | 117° |
| 2026-05-06 18:08 | 48.11884 | 16.57049 | 598 ft | 9 kts | 119° |
| 2026-05-06 18:08 | 48.11858 | 16.57144 | 598 ft | 10 kts | 96° |
| 2026-05-06 18:08 | 48.11844 | 16.57247 | 599 ft | 9 kts | 107° |
| 2026-05-06 18:08 | 48.11878 | 16.57311 | 599 ft | 13 kts | 351° |
| 2026-05-06 18:09 | 48.11951 | 16.57289 | 598 ft | 0 kts | 358° |
| 2026-05-06 18:09 | 48.11963 | 16.57292 | 598 ft | 5 kts | 22° |
| 2026-05-06 18:09 | 48.11996 | 16.57360 | 598 ft | 9 kts | 68° |
| 2026-05-06 18:10 | 48.12012 | 16.57450 | 598 ft | 8 kts | 85° |
| 2026-05-06 18:10 | 48.12004 | 16.57541 | 598 ft | 9 kts | 105° |
| 2026-05-06 18:10 | 48.11984 | 16.57653 | 599 ft | 12 kts | 107° |
| 2026-05-06 18:10 | 48.11955 | 16.57784 | 599 ft | 13 kts | 112° |
| 2026-05-06 18:11 | 48.11877 | 16.57863 | 600 ft | 13 kts | 165° |
| 2026-05-06 18:11 | 48.11698 | 16.57939 | 602 ft | 56 kts | 164° |
| 2026-05-06 18:11 | 48.11107 | 16.58188 | 607 ft | 119 kts | 163° |
| 2026-05-06 18:11 | 48.10142 | 16.58592 | 642 ft | 166 kts | 165° |
| 2026-05-06 18:12 | 48.09044 | 16.59048 | 1267 ft | 164 kts | 165° |
| 2026-05-06 18:12 | 48.07965 | 16.59492 | 2020 ft | 162 kts | 167° |
| 2026-05-06 18:12 | 48.06900 | 16.59922 | 2686 ft | 165 kts | 169° |
| 2026-05-06 18:12 | 48.05727 | 16.59827 | 3104 ft | 182 kts | 201° |
| 2026-05-06 18:13 | 48.04672 | 16.58579 | 3462 ft | 210 kts | 228° |
| 2026-05-06 18:13 | 48.03705 | 16.56796 | 3996 ft | 228 kts | 227° |
| 2026-05-06 18:13 | 48.02825 | 16.54740 | 4497 ft | 251 kts | 246° |
| 2026-05-06 18:13 | 48.02519 | 16.52112 | 5190 ft | 268 kts | 265° |
| 2026-05-06 18:14 | 48.02536 | 16.49318 | 6118 ft | 270 kts | 266° |
| 2026-05-06 18:14 | 48.02556 | 16.46557 | 6987 ft | 272 kts | 266° |
| 2026-05-06 18:14 | 48.02571 | 16.43741 | 7845 ft | 274 kts | 267° |
| 2026-05-06 18:14 | 48.02679 | 16.40911 | 8672 ft | 278 kts | 276° |
| 2026-05-06 18:15 | 48.03073 | 16.38111 | 9500 ft | 281 kts | 280° |
| 2026-05-06 18:15 | 48.03538 | 16.35262 | 10301 ft | 283 kts | 280° |
| 2026-05-06 18:15 | 48.04002 | 16.32367 | 10816 ft | 296 kts | 279° |
| 2026-05-06 18:15 | 48.04478 | 16.29270 | 11183 ft | 313 kts | 279° |
| 2026-05-06 18:16 | 48.04956 | 16.26084 | 11760 ft | 321 kts | 279° |
| 2026-05-06 18:16 | 48.05442 | 16.22804 | 12492 ft | 325 kts | 279° |
| 2026-05-06 18:16 | 48.05919 | 16.19549 | 13222 ft | 327 kts | 278° |
| 2026-05-06 18:16 | 48.06405 | 16.16213 | 13934 ft | 330 kts | 278° |
| 2026-05-06 18:17 | 48.06888 | 16.12878 | 14644 ft | 333 kts | 278° |
| 2026-05-06 18:17 | 48.07377 | 16.09478 | 15331 ft | 336 kts | 278° |
| 2026-05-06 18:17 | 48.07865 | 16.06066 | 16000 ft | 339 kts | 278° |
| 2026-05-06 18:17 | 48.08356 | 16.02635 | 16648 ft | 342 kts | 277° |
| 2026-05-06 18:18 | 48.08856 | 15.99127 | 17299 ft | 345 kts | 277° |
| 2026-05-06 18:18 | 48.09356 | 15.95593 | 17894 ft | 348 kts | 277° |
| 2026-05-06 18:18 | 48.09854 | 15.92057 | 18495 ft | 352 kts | 277° |
| 2026-05-06 18:18 | 48.10357 | 15.88489 | 19104 ft | 354 kts | 277° |
| 2026-05-06 18:19 | 48.10861 | 15.84906 | 19692 ft | 357 kts | 277° |
| 2026-05-06 18:19 | 48.11377 | 15.81240 | 20278 ft | 360 kts | 277° |
| 2026-05-06 18:19 | 48.11886 | 15.77604 | 20877 ft | 362 kts | 277° |
| 2026-05-06 18:19 | 48.12400 | 15.73931 | 21440 ft | 366 kts | 278° |
| 2026-05-06 18:20 | 48.12925 | 15.70166 | 21951 ft | 370 kts | 277° |
| 2026-05-06 18:20 | 48.13450 | 15.66405 | 22509 ft | 373 kts | 278° |
| 2026-05-06 18:20 | 48.13982 | 15.62582 | 23074 ft | 376 kts | 277° |
| 2026-05-06 18:20 | 48.14509 | 15.58770 | 23606 ft | 378 kts | 277° |
| 2026-05-06 18:21 | 48.15039 | 15.54943 | 24149 ft | 380 kts | 277° |
| 2026-05-06 18:21 | 48.15576 | 15.51042 | 24708 ft | 382 kts | 277° |
| 2026-05-06 18:21 | 48.16108 | 15.47164 | 25227 ft | 384 kts | 277° |
| 2026-05-06 18:21 | 48.16628 | 15.43262 | 25773 ft | 384 kts | 276° |
| 2026-05-06 18:22 | 48.17032 | 15.39315 | 26431 ft | 379 kts | 273° |
| 2026-05-06 18:22 | 48.17275 | 15.35423 | 27062 ft | 375 kts | 270° |
| 2026-05-06 18:22 | 48.17391 | 15.31573 | 27627 ft | 374 kts | 268° |
| 2026-05-06 18:22 | 48.17487 | 15.27710 | 28173 ft | 372 kts | 268° |
| 2026-05-06 18:23 | 48.17577 | 15.23856 | 28641 ft | 373 kts | 268° |
| 2026-05-06 18:23 | 48.17670 | 15.19942 | 29051 ft | 374 kts | 268° |
| 2026-05-06 18:23 | 48.17759 | 15.16058 | 29424 ft | 376 kts | 267° |
| 2026-05-06 18:23 | 48.17849 | 15.12161 | 29720 ft | 378 kts | 268° |
| 2026-05-06 18:24 | 48.18023 | 15.04337 | 29733 ft | 378 kts | 267° |
| 2026-05-06 18:24 | 48.18192 | 14.96453 | 29721 ft | 378 kts | 268° |
| 2026-05-06 18:25 | 48.18356 | 14.88619 | 29715 ft | 378 kts | 267° |
| 2026-05-06 18:25 | 48.18516 | 14.80734 | 29718 ft | 378 kts | 267° |
| 2026-05-06 18:26 | 48.18666 | 14.72901 | 29718 ft | 378 kts | 267° |
| 2026-05-06 18:26 | 48.18815 | 14.65029 | 29711 ft | 378 kts | 267° |
| 2026-05-06 18:27 | 48.18959 | 14.57225 | 29704 ft | 377 kts | 267° |
| 2026-05-06 18:27 | 48.19096 | 14.49345 | 29705 ft | 377 kts | 267° |
| 2026-05-06 18:28 | 48.19226 | 14.41532 | 29704 ft | 377 kts | 267° |
| 2026-05-06 18:28 | 48.19353 | 14.33754 | 29700 ft | 378 kts | 266° |
| 2026-05-06 18:29 | 48.19476 | 14.25824 | 29709 ft | 377 kts | 266° |
| 2026-05-06 18:29 | 48.19591 | 14.18037 | 29709 ft | 377 kts | 266° |
| 2026-05-06 18:30 | 48.19700 | 14.10173 | 29708 ft | 377 kts | 266° |
| 2026-05-06 18:30 | 48.19805 | 14.02363 | 29717 ft | 377 kts | 266° |
| 2026-05-06 18:31 | 48.19907 | 13.94473 | 29717 ft | 377 kts | 266° |
| 2026-05-06 18:31 | 48.20002 | 13.86678 | 29711 ft | 377 kts | 266° |
| 2026-05-06 18:32 | 48.20092 | 13.78805 | 29704 ft | 377 kts | 266° |
| 2026-05-06 18:32 | 48.20175 | 13.71005 | 29710 ft | 376 kts | 266° |
| 2026-05-06 18:33 | 48.20251 | 13.63171 | 29709 ft | 376 kts | 266° |
| 2026-05-06 18:33 | 48.20325 | 13.55375 | 29709 ft | 376 kts | 266° |
| 2026-05-06 18:34 | 48.20393 | 13.47518 | 29709 ft | 376 kts | 266° |
| 2026-05-06 18:34 | 48.20457 | 13.39739 | 29707 ft | 376 kts | 266° |
| 2026-05-06 18:35 | 48.20515 | 13.31905 | 29708 ft | 377 kts | 265° |
| 2026-05-06 18:35 | 48.20565 | 13.24105 | 29710 ft | 376 kts | 265° |
| 2026-05-06 18:36 | 48.20614 | 13.16270 | 29707 ft | 376 kts | 265° |
| 2026-05-06 18:36 | 48.20673 | 13.08457 | 29709 ft | 378 kts | 268° |
| 2026-05-06 18:37 | 48.21830 | 13.00702 | 29706 ft | 381 kts | 279° |
| 2026-05-06 18:37 | 48.23204 | 12.93090 | 29712 ft | 380 kts | 279° |
| 2026-05-06 18:38 | 48.24553 | 12.85446 | 29711 ft | 380 kts | 278° |
| 2026-05-06 18:38 | 48.25884 | 12.77793 | 29723 ft | 379 kts | 278° |
| 2026-05-06 18:39 | 48.27206 | 12.70131 | 29721 ft | 380 kts | 278° |
| 2026-05-06 18:40 | 48.29170 | 12.58656 | 29713 ft | 380 kts | 278° |
| 2026-05-06 18:40 | 48.30481 | 12.50958 | 29716 ft | 381 kts | 278° |
| 2026-05-06 18:41 | 48.31778 | 12.43308 | 29730 ft | 382 kts | 278° |
| 2026-05-06 18:41 | 48.33081 | 12.35588 | 29727 ft | 382 kts | 278° |
| 2026-05-06 18:42 | 48.34375 | 12.27867 | 29739 ft | 381 kts | 278° |
| 2026-05-06 18:42 | 48.35665 | 12.20153 | 29729 ft | 382 kts | 278° |
| 2026-05-06 18:43 | 48.36953 | 12.12417 | 29735 ft | 382 kts | 278° |
| 2026-05-06 18:43 | 48.37590 | 12.08565 | 29486 ft | 384 kts | 278° |
| 2026-05-06 18:43 | 48.38233 | 12.04676 | 29224 ft | 381 kts | 278° |
| 2026-05-06 18:43 | 48.38866 | 12.00853 | 28967 ft | 380 kts | 278° |
| 2026-05-06 18:44 | 48.39506 | 11.96966 | 28689 ft | 378 kts | 278° |
| 2026-05-06 18:44 | 48.40133 | 11.93160 | 28423 ft | 376 kts | 278° |
| 2026-05-06 18:44 | 48.40756 | 11.89358 | 28156 ft | 377 kts | 278° |
| 2026-05-06 18:44 | 48.41385 | 11.85504 | 27900 ft | 379 kts | 278° |
| 2026-05-06 18:45 | 48.42012 | 11.81658 | 27637 ft | 382 kts | 278° |
| 2026-05-06 18:45 | 48.42645 | 11.77772 | 27371 ft | 384 kts | 278° |
| 2026-05-06 18:45 | 48.43277 | 11.73879 | 27107 ft | 385 kts | 278° |
| 2026-05-06 18:45 | 48.43907 | 11.69989 | 26841 ft | 385 kts | 278° |
| 2026-05-06 18:46 | 48.44544 | 11.66040 | 26570 ft | 386 kts | 278° |
| 2026-05-06 18:46 | 48.45173 | 11.62147 | 26310 ft | 388 kts | 278° |
| 2026-05-06 18:46 | 48.45804 | 11.58223 | 26042 ft | 389 kts | 279° |
| 2026-05-06 18:46 | 48.46443 | 11.54243 | 25783 ft | 390 kts | 278° |
| 2026-05-06 18:47 | 48.47082 | 11.50260 | 25518 ft | 391 kts | 279° |
| 2026-05-06 18:47 | 48.47711 | 11.46323 | 25258 ft | 392 kts | 279° |
| 2026-05-06 18:47 | 48.48349 | 11.42321 | 24942 ft | 391 kts | 279° |
| 2026-05-06 18:47 | 48.48977 | 11.38373 | 24639 ft | 389 kts | 279° |
| 2026-05-06 18:48 | 48.49604 | 11.34421 | 24307 ft | 389 kts | 278° |
| 2026-05-06 18:48 | 48.50227 | 11.30484 | 23905 ft | 386 kts | 278° |
| 2026-05-06 18:48 | 48.50842 | 11.26589 | 23460 ft | 383 kts | 279° |
| 2026-05-06 18:48 | 48.51454 | 11.22717 | 23013 ft | 380 kts | 279° |
| 2026-05-06 18:49 | 48.52060 | 11.18856 | 22566 ft | 377 kts | 278° |
| 2026-05-06 18:49 | 48.52641 | 11.14977 | 22292 ft | 377 kts | 278° |
| 2026-05-06 18:49 | 48.53206 | 11.11140 | 22032 ft | 377 kts | 278° |
| 2026-05-06 18:49 | 48.53766 | 11.07321 | 21771 ft | 375 kts | 278° |
| 2026-05-06 18:50 | 48.54326 | 11.03510 | 21509 ft | 373 kts | 278° |
| 2026-05-06 18:50 | 48.54887 | 10.99700 | 21250 ft | 372 kts | 278° |
| 2026-05-06 18:50 | 48.55450 | 10.95867 | 20981 ft | 371 kts | 278° |
| 2026-05-06 18:50 | 48.55999 | 10.92104 | 20724 ft | 369 kts | 278° |
| 2026-05-06 18:51 | 48.56546 | 10.88354 | 20461 ft | 368 kts | 278° |
| 2026-05-06 18:51 | 48.57097 | 10.84575 | 20199 ft | 367 kts | 279° |
| 2026-05-06 18:51 | 48.57642 | 10.80838 | 19936 ft | 365 kts | 278° |
| 2026-05-06 18:51 | 48.58183 | 10.77121 | 19758 ft | 364 kts | 278° |
| 2026-05-06 18:52 | 48.58726 | 10.73369 | 19510 ft | 363 kts | 278° |
| 2026-05-06 18:52 | 48.59257 | 10.69676 | 19284 ft | 362 kts | 278° |
| 2026-05-06 18:52 | 48.59790 | 10.65977 | 19035 ft | 362 kts | 278° |
| 2026-05-06 18:52 | 48.60322 | 10.62281 | 18803 ft | 361 kts | 278° |
| 2026-05-06 18:53 | 48.60856 | 10.58557 | 18549 ft | 359 kts | 278° |
| 2026-05-06 18:53 | 48.61378 | 10.54902 | 18297 ft | 359 kts | 279° |
| 2026-05-06 18:53 | 48.61900 | 10.51241 | 18054 ft | 358 kts | 279° |
| 2026-05-06 18:53 | 48.62425 | 10.47550 | 17801 ft | 357 kts | 279° |
| 2026-05-06 18:54 | 48.62944 | 10.43901 | 17554 ft | 356 kts | 279° |
| 2026-05-06 18:54 | 48.63459 | 10.40265 | 17304 ft | 355 kts | 279° |
| 2026-05-06 18:54 | 48.63971 | 10.36643 | 17059 ft | 353 kts | 279° |
| 2026-05-06 18:54 | 48.64480 | 10.33027 | 16812 ft | 352 kts | 278° |
| 2026-05-06 18:55 | 48.64996 | 10.29365 | 16560 ft | 351 kts | 278° |
| 2026-05-06 18:55 | 48.65493 | 10.25823 | 16320 ft | 349 kts | 278° |
| 2026-05-06 18:55 | 48.65998 | 10.22213 | 16068 ft | 348 kts | 278° |
| 2026-05-06 18:55 | 48.66494 | 10.18663 | 15823 ft | 346 kts | 278° |
| 2026-05-06 18:56 | 48.66990 | 10.15109 | 15574 ft | 345 kts | 278° |
| 2026-05-06 18:56 | 48.67489 | 10.11549 | 15317 ft | 344 kts | 277° |
| 2026-05-06 18:56 | 48.67997 | 10.08041 | 15037 ft | 342 kts | 279° |
| 2026-05-06 18:56 | 48.68502 | 10.04552 | 14767 ft | 340 kts | 278° |
| 2026-05-06 18:57 | 48.69006 | 10.01076 | 14488 ft | 340 kts | 279° |
| 2026-05-06 18:57 | 48.69519 | 9.97610 | 14214 ft | 337 kts | 279° |
| 2026-05-06 18:57 | 48.70029 | 9.94162 | 13941 ft | 336 kts | 278° |
| 2026-05-06 18:57 | 48.70533 | 9.90738 | 13660 ft | 334 kts | 279° |
| 2026-05-06 18:58 | 48.71035 | 9.87274 | 13381 ft | 333 kts | 279° |
| 2026-05-06 18:58 | 48.71529 | 9.83861 | 13110 ft | 332 kts | 279° |
| 2026-05-06 18:58 | 48.72018 | 9.80451 | 12835 ft | 332 kts | 279° |
| 2026-05-06 18:58 | 48.72497 | 9.77052 | 12561 ft | 330 kts | 279° |
| 2026-05-06 18:59 | 48.72964 | 9.73659 | 12182 ft | 331 kts | 279° |
| 2026-05-06 18:59 | 48.73416 | 9.70271 | 11427 ft | 338 kts | 279° |
| 2026-05-06 18:59 | 48.73873 | 9.66726 | 10653 ft | 345 kts | 279° |
| 2026-05-06 18:59 | 48.74438 | 9.63202 | 10159 ft | 344 kts | 290° |
| 2026-05-06 19:00 | 48.75682 | 9.60178 | 9783 ft | 342 kts | 312° |
| 2026-05-06 19:00 | 48.77590 | 9.58093 | 9380 ft | 340 kts | 334° |
| 2026-05-06 19:00 | 48.79877 | 9.57269 | 8975 ft | 339 kts | 357° |
| 2026-05-06 19:00 | 48.82175 | 9.57830 | 8573 ft | 337 kts | 20° |
| 2026-05-06 19:01 | 48.84143 | 9.59681 | 8172 ft | 333 kts | 44° |
| 2026-05-06 19:01 | 48.85451 | 9.62516 | 7837 ft | 327 kts | 68° |
| 2026-05-06 19:01 | 48.85886 | 9.65825 | 7614 ft | 317 kts | 93° |
| 2026-05-06 19:01 | 48.85410 | 9.68998 | 7364 ft | 307 kts | 117° |
| 2026-05-06 19:02 | 48.84139 | 9.71528 | 6959 ft | 301 kts | 142° |
| 2026-05-06 19:02 | 48.82314 | 9.72967 | 6564 ft | 296 kts | 168° |
| 2026-05-06 19:02 | 48.80328 | 9.73068 | 6161 ft | 289 kts | 194° |
| 2026-05-06 19:02 | 48.78517 | 9.71852 | 5761 ft | 284 kts | 219° |
| 2026-05-06 19:03 | 48.77000 | 9.70019 | 5366 ft | 274 kts | 223° |
| 2026-05-06 19:03 | 48.75641 | 9.68090 | 4958 ft | 261 kts | 236° |
| 2026-05-06 19:03 | 48.75044 | 9.65684 | 4799 ft | 238 kts | 268° |
| 2026-05-06 19:03 | 48.74981 | 9.63202 | 4794 ft | 232 kts | 267° |
| 2026-05-06 19:04 | 48.74855 | 9.60894 | 4769 ft | 210 kts | 265° |
| 2026-05-06 19:04 | 48.74702 | 9.58809 | 4794 ft | 186 kts | 265° |
| 2026-05-06 19:04 | 48.74548 | 9.56911 | 4830 ft | 182 kts | 264° |
| 2026-05-06 19:04 | 48.74461 | 9.55006 | 4822 ft | 174 kts | 272° |
| 2026-05-06 19:05 | 48.74460 | 9.53211 | 4808 ft | 170 kts | 269° |
| 2026-05-06 19:05 | 48.74327 | 9.51436 | 4764 ft | 169 kts | 264° |
| 2026-05-06 19:05 | 48.74106 | 9.49696 | 4566 ft | 169 kts | 259° |
| 2026-05-06 19:05 | 48.73852 | 9.47976 | 4323 ft | 167 kts | 259° |
| 2026-05-06 19:06 | 48.73563 | 9.46270 | 4101 ft | 167 kts | 257° |
| 2026-05-06 19:06 | 48.73259 | 9.44579 | 3883 ft | 167 kts | 257° |
| 2026-05-06 19:06 | 48.72939 | 9.42881 | 3661 ft | 167 kts | 257° |
| 2026-05-06 19:06 | 48.72617 | 9.41205 | 3438 ft | 166 kts | 256° |
| 2026-05-06 19:07 | 48.72295 | 9.39529 | 3213 ft | 166 kts | 256° |
| 2026-05-06 19:07 | 48.71975 | 9.37870 | 2994 ft | 164 kts | 257° |
| 2026-05-06 19:07 | 48.71656 | 9.36214 | 2778 ft | 163 kts | 256° |
| 2026-05-06 19:07 | 48.71341 | 9.34567 | 2562 ft | 162 kts | 256° |
| 2026-05-06 19:08 | 48.71019 | 9.32887 | 2345 ft | 161 kts | 256° |
| 2026-05-06 19:08 | 48.70713 | 9.31288 | 2139 ft | 160 kts | 256° |
| 2026-05-06 19:08 | 48.70413 | 9.29714 | 1915 ft | 149 kts | 256° |
| 2026-05-06 19:08 | 48.70142 | 9.28252 | 1688 ft | 142 kts | 257° |
| 2026-05-06 19:09 | 48.69861 | 9.26813 | 1516 ft | 142 kts | 256° |
| 2026-05-06 19:09 | 48.69595 | 9.25419 | 1280 ft | 135 kts | 257° |
| 2026-05-06 19:09 | 48.69343 | 9.24099 | 1187 ft | 123 kts | 255° |
| 2026-05-06 19:09 | 48.69154 | 9.23063 | 1215 ft | 80 kts | 251° |